Manchester, MI

5:23 PM EST on December 25, 2014 (GMT -0500)
Chuck's House | Change Station
CLOSE
Current Station
Personal Weather Station
Location: Manchester, MI
Elevation: 899 ft
Nearby Weather Stations

Elev 899 ft 42.15 °N, 84.03 °W | Updated 11 minutes ago

Overcast
Overcast
36.2 °F
Feels Like 32 °F
N
5.0
Wind Variable Wind from WSW

Today
High -- | Low -- °F
--% Chance of Precip.
Yesterday
High -- | Low -- °F
Precip. -- in
8:03 AM 5:09 PM
Waxing Crescent, 19% visible
Pressure 30.06 in
Visibility 10.0 miles
Clouds Overcast 2300 ft
Windchill 32 °F
Dew Point 32 °F
Humidity 86%
Rainfall 0.00 in
Snow Depth Not available.
UV 0 out of 12
Pollen .10 out of 12
Air Quality Not available.
Flu Activity Not available.
METAR KARB 252153Z 24011KT 10SM OVC023 03/M02 A3004 RMK AO2 SLP178 T00281017

More Conditions Fewer Conditions

Pressure 30.06 in
Visibility 10.0 miles
Clouds Overcast 2300 ft
Windchill 32 °F
Dew Point 32 °F
Humidity 86%
Rainfall 0.00 in
Snow Depth Not available.
UV 0 out of 12
Pollen .10 out of 12
Air Quality Not available.
Flu Activity Not available.
METAR KARB 252153Z 24011KT 10SM OVC023 03/M02 A3004 RMK AO2 SLP178 T00281017

More Conditions Fewer Conditions

10-Day Weather Forecast

Almanac

Astronomy

Dec. 25, 2014 Rise Set
Actual Time
Civil Twilight
Nautical Twilight
Astronomical Twilight
Moon
Length of Visible Light
Length of Day
Tomorrow will be .
, % of the Moon is Illuminated

Today's Extremes

State Highs State Lows

Community

WunderPhotos

Upload Photos

1,780,427 photos uploaded!

WunderBlogs® & News

Nearby

Air Quality

  Air Quality AQ Index Pollutant
Not available.

Snow Depth

Station Depth Elevation

Earthquake Activity

City Distance Mag. Time & Date
Minimum magnitude displayed is 2.5.

Coastal Water Temperatures

Place Temperature

Nearby Weather Stations